Time;durP1;ratioP1;P1;durP2;ratioP2;P2;SDS_P1;SDS_P2;PMS_P1;PMS_P2;Temp;Humidity;BMP_temperature;BMP_pressure;BME280_temperature;BME280_humidity;BME280_pressure;Samples;Min_cycle;Max_cycle;Signal;HPM_P1;HPM_P2
2023/06/03 00:00:58;;;;;;;10.37;4.23;;;;;;;13.78;68.03;98554.47;4921968;28;20232;-62
2023/06/03 00:03:25;;;;;;;8.47;4.03;;;;;;;13.82;67.57;98547.88;4920435;28;20227;-62
2023/06/03 00:05:51;;;;;;;9.80;4.43;;;;;;;13.79;67.87;98550.84;4916060;28;20241;-62
2023/06/03 00:08:18;;;;;;;11.17;4.43;;;;;;;13.88;67.92;98548.97;4921662;28;20234;-63
2023/06/03 00:10:44;;;;;;;11.10;5.00;;;;;;;13.81;68.01;98546.25;4918852;28;20242;-63
2023/06/03 00:13:11;;;;;;;10.17;4.47;;;;;;;13.96;65.61;98554.19;4922547;28;20232;-63
2023/06/03 00:15:37;;;;;;;7.47;4.27;;;;;;;13.99;65.82;98553.03;4922347;28;20293;-63
2023/06/03 00:18:06;;;;;;;11.47;4.57;;;;;;;14.01;67.44;98553.66;4925241;28;20699;-63
2023/06/03 00:20:36;;;;;;;12.73;4.70;;;;;;;13.92;67.21;98552.91;4920822;28;20817;-63
2023/06/03 00:23:03;;;;;;;9.07;4.23;;;;;;;13.84;68.34;98556.41;4923380;28;21184;-63
2023/06/03 00:25:31;;;;;;;7.03;4.20;;;;;;;13.80;67.78;98562.16;4920125;28;20232;-63
2023/06/03 00:27:58;;;;;;;7.17;4.03;;;;;;;13.76;67.84;98560.88;4923660;29;20233;-63
2023/06/03 00:30:25;;;;;;;12.00;4.90;;;;;;;13.77;70.81;98560.69;4928202;29;20234;-63
2023/06/03 00:32:51;;;;;;;8.57;4.30;;;;;;;13.75;71.61;98554.00;4916736;28;20311;-62
2023/06/03 00:35:19;;;;;;;8.37;4.50;;;;;;;13.67;71.41;98555.69;4922936;28;20234;-62
2023/06/03 00:37:46;;;;;;;9.93;5.00;;;;;;;13.63;70.32;98557.03;4921327;28;20734;-62
2023/06/03 00:40:12;;;;;;;9.03;4.80;;;;;;;13.59;70.38;98553.09;4925427;29;20637;-62
2023/06/03 00:42:39;;;;;;;11.93;4.87;;;;;;;13.55;71.09;98554.44;4921493;28;20241;-62
2023/06/03 00:45:07;;;;;;;10.13;4.70;;;;;;;13.50;72.46;98554.13;4922522;29;20237;-62
2023/06/03 00:47:34;;;;;;;6.47;4.80;;;;;;;13.44;71.28;98550.38;4924677;28;20231;-62
2023/06/03 00:50:00;;;;;;;11.90;5.07;;;;;;;13.40;71.37;98554.28;4924269;29;20598;-62
2023/06/03 00:52:28;;;;;;;10.20;4.73;;;;;;;13.34;71.57;98550.56;4919737;29;20302;-63
2023/06/03 00:54:55;;;;;;;9.13;4.47;;;;;;;13.61;66.76;98545.88;4920259;29;20717;-63
2023/06/03 00:57:22;;;;;;;9.10;4.43;;;;;;;13.56;68.40;98540.34;4937162;28;20333;-63
2023/06/03 00:59:49;;;;;;;11.10;4.97;;;;;;;13.46;69.74;98540.53;4925345;28;20234;-63
2023/06/03 01:02:16;;;;;;;12.43;4.73;;;;;;;13.47;70.71;98538.75;4928775;29;20658;-63
2023/06/03 01:04:45;;;;;;;13.10;5.27;;;;;;;13.42;70.00;98541.88;4918118;28;20231;-63
2023/06/03 01:07:18;;;;;;;13.13;4.90;;;;;;;13.31;70.71;98536.97;4923236;28;20292;-62
2023/06/03 01:10:02;;;;;;;12.43;4.47;;;;;;;13.20;70.50;98536.38;4941102;28;20247;-62
2023/06/03 01:12:35;;;;;;;7.33;4.17;;;;;;;13.32;68.93;98533.34;4920133;28;20238;-62
2023/06/03 01:15:06;;;;;;;11.27;4.90;;;;;;;13.30;69.97;98533.53;4921456;29;20325;-62
2023/06/03 01:17:39;;;;;;;7.47;4.60;;;;;;;13.23;69.83;98532.59;4928263;28;20234;-63
2023/06/03 01:20:09;;;;;;;9.33;4.53;;;;;;;13.13;71.04;98543.28;4921394;28;20257;-63
2023/06/03 01:22:41;;;;;;;9.83;5.67;;;;;;;13.11;72.88;98542.63;4917572;28;20246;-63
2023/06/03 01:25:10;;;;;;;10.60;4.97;;;;;;;12.97;73.28;98541.50;4942942;28;20257;-63
2023/06/03 01:27:39;;;;;;;9.33;4.87;;;;;;;12.91;72.54;98542.19;4917882;28;20258;-63
2023/06/03 01:30:08;;;;;;;11.50;4.23;;;;;;;12.82;72.85;98541.41;4922560;28;20247;-63
2023/06/03 01:32:36;;;;;;;8.77;4.67;;;;;;;12.77;73.31;98547.13;4927287;28;20231;-62
2023/06/03 01:35:04;;;;;;;7.23;4.60;;;;;;;12.72;74.22;98544.19;4920351;29;20234;-62
2023/06/03 01:37:32;;;;;;;7.50;4.27;;;;;;;12.68;74.14;98540.28;4917868;28;20764;-62
2023/06/03 01:40:01;;;;;;;11.40;4.90;;;;;;;12.70;74.56;98540.94;4920749;28;20322;-62
2023/06/03 01:42:33;;;;;;;8.90;5.00;;;;;;;12.79;75.17;98545.16;4924621;28;20254;-62
2023/06/03 01:45:02;;;;;;;13.23;4.63;;;;;;;12.73;74.92;98545.03;4921611;29;20229;-62
2023/06/03 01:47:29;;;;;;;9.60;4.60;;;;;;;12.75;74.62;98533.38;4923969;28;20238;-62
2023/06/03 01:49:55;;;;;;;9.10;4.63;;;;;;;12.73;74.87;98530.09;4921585;29;20251;-62
2023/06/03 01:52:22;;;;;;;9.67;4.87;;;;;;;12.69;74.41;98534.06;4920763;28;20237;-62
2023/06/03 01:54:49;;;;;;;12.30;5.13;;;;;;;12.71;74.37;98537.34;4920956;28;20234;-63
2023/06/03 01:57:16;;;;;;;8.20;4.20;;;;;;;12.75;75.27;98529.97;4923819;28;20226;-63
2023/06/03 01:59:44;;;;;;;11.73;5.17;;;;;;;12.66;74.96;98537.03;4923339;29;20242;-62
2023/06/03 02:02:11;;;;;;;6.43;4.60;;;;;;;12.61;75.84;98536.72;4925157;29;20257;-62
2023/06/03 02:04:45;;;;;;;7.10;4.70;;;;;;;12.65;76.56;98535.38;4919963;28;20311;-62
2023/06/03 02:07:13;;;;;;;8.90;4.77;;;;;;;12.62;75.14;98533.91;4927047;29;20242;-62
2023/06/03 02:09:42;;;;;;;10.07;5.00;;;;;;;12.61;75.74;98537.50;4940248;28;20239;-62
2023/06/03 02:12:09;;;;;;;10.53;4.80;;;;;;;12.51;75.65;98537.69;4942342;28;20270;-62
2023/06/03 02:14:43;;;;;;;11.23;5.40;;;;;;;12.55;76.57;98535.56;4921013;29;20242;-62
2023/06/03 02:17:11;;;;;;;8.70;4.80;;;;;;;12.60;76.67;98540.31;4926153;29;20292;-62
2023/06/03 02:19:41;;;;;;;10.80;4.57;;;;;;;12.52;76.68;98541.13;4933940;28;20223;-62
2023/06/03 02:22:08;;;;;;;11.17;5.23;;;;;;;12.46;77.32;98536.53;4922542;29;20236;-62
2023/06/03 02:25:00;;;;;;;8.93;5.03;;;;;;;12.48;76.64;98540.66;4917420;29;20239;-62
2023/06/03 02:27:28;;;;;;;8.50;4.77;;;;;;;12.37;77.10;98531.31;4940739;28;20732;-62
2023/06/03 02:29:56;;;;;;;9.53;4.50;;;;;;;12.32;76.70;98538.84;4920344;28;20711;-62
2023/06/03 02:32:23;;;;;;;10.57;5.37;;;;;;;12.39;76.32;98536.41;4925713;29;20247;-62
2023/06/03 02:34:50;;;;;;;13.63;5.50;;;;;;;12.45;76.77;98535.75;4938570;28;20233;-62
2023/06/03 02:37:17;;;;;;;11.93;4.97;;;;;;;12.43;77.07;98532.47;4934442;28;20237;-62
2023/06/03 02:39:44;;;;;;;10.07;5.10;;;;;;;12.45;77.25;98538.34;4919073;28;20243;-63
2023/06/03 02:42:11;;;;;;;15.50;4.83;;;;;;;12.41;77.67;98539.66;4942413;28;20238;-63
2023/06/03 02:44:42;;;;;;;12.13;5.17;;;;;;;12.38;77.71;98532.16;4923748;28;20253;-63
2023/06/03 02:47:10;;;;;;;10.67;4.60;;;;;;;12.42;77.97;98532.63;4919103;28;20697;-63
2023/06/03 02:49:41;;;;;;;9.97;4.83;;;;;;;12.46;76.88;98537.38;4922742;29;20704;-63
2023/06/03 02:52:09;;;;;;;12.13;5.60;;;;;;;12.52;77.25;98544.56;4919003;29;20325;-62
2023/06/03 02:54:42;;;;;;;7.30;4.30;;;;;;;12.58;76.29;98544.88;4939713;28;20617;-62
2023/06/03 02:57:08;;;;;;;10.80;4.83;;;;;;;12.64;76.38;98541.63;4936079;28;20293;-62
2023/06/03 03:00:00;;;;;;;10.30;5.10;;;;;;;12.66;76.72;98540.44;4916492;29;20377;-62
2023/06/03 03:02:28;;;;;;;10.40;4.87;;;;;;;12.68;76.53;98543.72;4918763;28;20333;-62
2023/06/03 03:04:55;;;;;;;7.23;4.73;;;;;;;12.68;76.42;98542.91;4914655;29;20229;-62
2023/06/03 03:07:27;;;;;;;9.27;4.53;;;;;;;12.73;75.40;98548.44;4917392;29;20253;-62
2023/06/03 03:09:54;;;;;;;11.13;4.87;;;;;;;12.79;74.73;98552.22;4933815;29;20230;-62
2023/06/03 03:12:20;;;;;;;7.53;4.53;;;;;;;12.81;75.69;98556.28;4924194;29;20252;-62
2023/06/03 03:14:48;;;;;;;11.53;4.90;;;;;;;12.88;76.34;98550.38;4930282;28;20262;-62
2023/06/03 03:17:16;;;;;;;10.27;5.13;;;;;;;12.86;76.42;98547.94;4934910;28;20241;-63
2023/06/03 03:19:45;;;;;;;12.53;5.50;;;;;;;12.87;76.46;98556.59;4919256;28;20251;-63
2023/06/03 03:22:12;;;;;;;11.83;4.77;;;;;;;12.88;76.33;98547.75;4924633;29;20234;-63
2023/06/03 03:24:42;;;;;;;8.60;5.23;;;;;;;12.83;76.41;98546.47;4937690;28;20240;-63
2023/06/03 03:27:09;;;;;;;11.03;5.27;;;;;;;12.85;75.83;98554.97;4918736;29;20244;-63
2023/06/03 03:29:45;;;;;;;11.90;4.80;;;;;;;12.87;76.00;98549.56;4913294;28;20232;-63
2023/06/03 03:32:12;;;;;;;12.50;5.83;;;;;;;12.80;76.90;98553.84;5141213;23;20236;-63
2023/06/03 03:34:49;;;;;;;10.57;5.13;;;;;;;12.75;76.92;98549.09;4930716;28;20228;-63
2023/06/03 03:37:16;;;;;;;9.10;5.07;;;;;;;12.71;76.71;98555.69;4944193;28;20261;-63
2023/06/03 03:39:45;;;;;;;8.50;5.00;;;;;;;12.59;76.74;98554.38;4941791;28;20227;-63
2023/06/03 03:42:12;;;;;;;10.60;5.40;;;;;;;12.53;76.93;98556.69;4935143;28;20240;-63
2023/06/03 03:44:42;;;;;;;11.10;5.50;;;;;;;12.48;77.11;98558.13;4927502;28;20236;-63
2023/06/03 03:47:10;;;;;;;10.67;5.73;;;;;;;12.40;79.20;98551.91;4915298;28;20232;-63
2023/06/03 03:49:42;;;;;;;9.97;5.30;;;;;;;12.33;79.30;98560.59;4927357;28;20222;-63
2023/06/03 03:52:15;;;;;;;10.50;4.77;;;;;;;12.29;79.11;98559.31;4930650;28;20242;-63
2023/06/03 03:54:42;;;;;;;11.60;5.30;;;;;;;12.24;81.07;98563.22;4918858;28;20292;-63
2023/06/03 03:57:13;;;;;;;10.77;5.30;;;;;;;12.17;81.22;98559.63;4926315;28;20260;-63
2023/06/03 03:59:48;;;;;;;9.77;5.20;;;;;;;12.09;81.41;98559.59;4927679;28;20398;-63
2023/06/03 04:02:16;;;;;;;7.23;5.57;;;;;;;12.05;81.84;98553.06;4930758;28;20236;-63
2023/06/03 04:04:45;;;;;;;9.57;5.17;;;;;;;12.02;81.59;98553.38;4926055;28;20233;-63
2023/06/03 04:07:20;;;;;;;16.17;5.80;;;;;;;12.01;81.71;98557.81;4916474;29;20605;-63
2023/06/03 04:09:48;;;;;;;9.97;5.57;;;;;;;12.02;82.25;98556.00;4915872;28;20261;-62
2023/06/03 04:12:29;;;;;;;12.53;5.43;;;;;;;12.01;83.37;98552.59;4916018;28;20296;-62
2023/06/03 04:14:58;;;;;;;15.90;5.53;;;;;;;11.96;82.24;98555.63;4909040;29;20233;-62
2023/06/03 04:17:25;;;;;;;12.60;5.40;;;;;;;11.96;83.26;98554.84;4927071;29;20252;-62
2023/06/03 04:19:53;;;;;;;9.23;5.63;;;;;;;11.96;82.64;98558.25;4924986;28;20254;-62
2023/06/03 04:22:25;;;;;;;11.50;5.77;;;;;;;11.97;84.00;98556.47;4925410;28;20235;-62
2023/06/03 04:24:57;;;;;;;16.17;6.00;;;;;;;12.01;83.58;98562.22;4926757;28;20241;-62
2023/06/03 04:27:25;;;;;;;13.23;5.70;;;;;;;11.96;84.50;98560.88;4912317;29;20240;-62
2023/06/03 04:29:52;;;;;;;9.47;5.50;;;;;;;11.95;85.63;98559.22;4919274;28;20299;-62
2023/06/03 04:32:19;;;;;;;10.87;5.33;;;;;;;11.89;86.11;98557.25;4914032;29;20712;-62
2023/06/03 04:34:51;;;;;;;14.87;5.07;;;;;;;11.93;86.19;98565.63;4909934;28;20773;-62
2023/06/03 04:37:18;;;;;;;10.07;5.40;;;;;;;11.96;87.59;98562.69;4930454;28;20227;-62
2023/06/03 04:39:48;;;;;;;9.67;5.43;;;;;;;11.95;87.52;98556.63;4922815;28;20237;-62
2023/06/03 04:42:15;;;;;;;13.20;5.97;;;;;;;11.95;87.89;98561.03;4925596;28;20295;-62
2023/06/03 04:44:43;;;;;;;10.63;5.80;;;;;;;11.93;87.20;98558.56;4911033;28;20254;-63
2023/06/03 04:47:11;;;;;;;11.87;5.77;;;;;;;11.94;88.25;98557.59;4927313;28;20710;-62
2023/06/03 04:49:42;;;;;;;11.53;5.87;;;;;;;12.00;88.10;98563.19;4913638;28;20329;-62
2023/06/03 04:52:10;;;;;;;9.33;5.70;;;;;;;12.00;87.22;98571.03;4927818;28;20240;-62
2023/06/03 04:54:49;;;;;;;11.17;5.87;;;;;;;12.07;87.60;98564.19;4914769;28;20740;-62
2023/06/03 04:57:19;;;;;;;12.03;5.83;;;;;;;12.09;86.98;98554.38;4932364;28;20261;-62
2023/06/03 04:59:46;;;;;;;12.33;5.43;;;;;;;12.12;87.12;98555.88;4916619;28;20221;-62
2023/06/03 05:02:16;;;;;;;11.43;5.83;;;;;;;12.13;86.79;98560.94;4929760;28;20334;-62
2023/06/03 05:04:44;;;;;;;9.40;5.80;;;;;;;12.17;84.80;98562.22;4929353;28;20298;-62
2023/06/03 05:07:13;;;;;;;10.17;5.43;;;;;;;12.26;85.08;98563.03;4917203;29;20259;-62
2023/06/03 05:09:42;;;;;;;8.63;5.60;;;;;;;12.31;85.09;98562.56;4915393;28;20805;-62
2023/06/03 05:12:10;;;;;;;10.53;6.00;;;;;;;12.33;85.76;98564.03;4934580;28;20250;-62
2023/06/03 05:14:43;;;;;;;11.53;6.10;;;;;;;12.32;86.21;98567.63;4930017;28;20623;-62
2023/06/03 05:17:10;;;;;;;13.43;6.60;;;;;;;12.41;86.16;98563.22;4913793;29;20299;-62
2023/06/03 05:19:42;;;;;;;13.10;5.80;;;;;;;12.49;85.60;98563.22;4913516;28;20244;-62
2023/06/03 05:22:08;;;;;;;9.87;5.93;;;;;;;12.57;84.91;98566.81;4919358;28;20234;-62
2023/06/03 05:25:00;;;;;;;13.63;6.30;;;;;;;12.63;84.64;98555.69;4914219;28;20288;-62
2023/06/03 05:27:28;;;;;;;9.13;5.90;;;;;;;12.68;84.81;98559.44;4926769;28;20576;-62
2023/06/03 05:29:55;;;;;;;10.63;5.95;;;;;;;12.73;84.60;98561.53;4911433;29;21221;-62
2023/06/03 05:32:22;;;;;;;12.83;6.37;;;;;;;12.84;84.41;98561.19;4932184;28;20236;-62
2023/06/03 05:34:50;;;;;;;12.53;6.50;;;;;;;12.89;83.98;98558.09;4925734;28;20587;-62
2023/06/03 05:37:18;;;;;;;12.17;6.03;;;;;;;12.95;83.81;98554.81;4929314;28;20699;-62
2023/06/03 05:39:44;;;;;;;8.17;5.40;;;;;;;13.10;83.21;98565.38;4928315;28;20293;-63
2023/06/03 05:42:12;;;;;;;10.80;6.10;;;;;;;13.28;83.87;98564.34;4936513;28;20725;-63
2023/06/03 05:44:43;;;;;;;11.90;5.90;;;;;;;13.45;82.57;98566.94;4916258;28;20225;-63
2023/06/03 05:47:10;;;;;;;12.10;6.13;;;;;;;13.69;81.72;98564.19;4917277;29;20260;-63
2023/06/03 05:49:43;;;;;;;12.40;6.20;;;;;;;13.85;80.70;98572.94;4929722;28;20229;-63
2023/06/03 05:52:10;;;;;;;9.77;6.20;;;;;;;13.90;80.16;98573.25;4931647;29;20273;-63
2023/06/03 05:54:42;;;;;;;10.10;5.50;;;;;;;13.86;78.97;98569.31;4931099;28;20322;-63
2023/06/03 05:57:09;;;;;;;12.13;5.60;;;;;;;13.98;81.36;98575.00;4928131;28;20238;-63
2023/06/03 05:59:45;;;;;;;9.70;5.73;;;;;;;14.12;77.90;98587.38;4928849;28;20324;-63
2023/06/03 06:02:12;;;;;;;14.77;5.90;;;;;;;14.15;76.86;98592.28;4928347;28;20606;-63
2023/06/03 06:04:42;;;;;;;8.77;5.87;;;;;;;14.30;75.29;98591.53;4915145;28;20258;-63
2023/06/03 06:07:08;;;;;;;10.27;5.63;;;;;;;14.47;75.73;98585.13;4916840;29;20231;-63
2023/06/03 06:09:42;;;;;;;14.50;7.07;;;;;;;14.74;75.07;98582.16;4914486;28;20242;-63
2023/06/03 06:12:09;;;;;;;8.43;5.90;;;;;;;14.83;72.42;98588.97;4933423;28;20238;-63
2023/06/03 06:14:41;;;;;;;14.73;5.70;;;;;;;15.02;71.36;98589.41;4931679;28;20606;-63
2023/06/03 06:17:10;;;;;;;10.03;5.83;;;;;;;15.16;74.08;98588.59;4917510;29;20317;-63
2023/06/03 06:19:42;;;;;;;9.90;5.27;;;;;;;15.40;73.50;98578.81;4929837;28;20739;-63
2023/06/03 06:22:08;;;;;;;11.87;6.37;;;;;;;15.37;70.18;98583.63;4931476;28;20231;-63
2023/06/03 06:24:42;;;;;;;12.57;6.20;;;;;;;15.43;69.53;98588.97;4930556;28;20667;-63
2023/06/03 06:27:08;;;;;;;11.77;6.33;;;;;;;15.61;68.12;98591.19;4919738;28;20243;-63
2023/06/03 06:30:01;;;;;;;14.63;6.83;;;;;;;15.47;68.97;98586.78;4915413;28;20791;-63
2023/06/03 06:32:30;;;;;;;12.73;6.17;;;;;;;15.53;68.83;98595.75;4929325;28;20236;-63
2023/06/03 06:34:57;;;;;;;14.23;6.20;;;;;;;15.58;68.15;98596.03;4919060;29;20235;-63
2023/06/03 06:37:24;;;;;;;13.20;5.93;;;;;;;15.90;68.82;98601.91;4932862;28;20228;-63
2023/06/03 06:39:52;;;;;;;11.03;6.00;;;;;;;15.98;67.23;98601.75;4914935;28;20603;-63
2023/06/03 06:42:34;;;;;;;14.23;6.13;;;;;;;16.18;66.17;98603.78;4913219;29;20235;-63
2023/06/03 06:45:29;;;;;;;11.90;5.20;;;;;;;16.43;64.51;98606.03;4922913;28;20258;-63
2023/06/03 06:48:05;;;;;;;12.30;5.90;;;;;;;16.50;64.04;98599.00;4909919;29;20235;-63
2023/06/03 06:50:43;;;;;;;10.57;5.33;;;;;;;16.61;64.17;98606.41;4913659;28;20252;-63
2023/06/03 06:53:10;;;;;;;10.87;5.50;;;;;;;16.72;66.04;98596.34;4914945;29;20248;-63
2023/06/03 06:55:47;;;;;;;11.20;4.73;;;;;;;16.85;63.94;98601.72;4926805;28;20244;-63
2023/06/03 06:58:17;;;;;;;11.27;5.53;;;;;;;16.96;63.45;98609.09;4931234;28;20282;-64
2023/06/03 07:00:44;;;;;;;12.20;5.47;;;;;;;16.92;61.53;98599.13;4928259;28;20315;-63
2023/06/03 07:03:15;;;;;;;12.30;4.93;;;;;;;16.97;61.22;98605.44;4932082;28;20268;-63
2023/06/03 07:05:42;;;;;;;9.57;5.37;;;;;;;17.03;61.44;98603.06;4928463;28;20237;-63
2023/06/03 07:08:10;;;;;;;11.67;4.90;;;;;;;17.17;60.67;98603.97;4932657;28;20248;-63
2023/06/03 07:10:37;;;;;;;10.97;5.27;;;;;;;17.23;61.54;98608.47;4913979;28;20248;-63
2023/06/03 07:13:06;;;;;;;11.80;4.73;;;;;;;17.42;61.03;98606.94;4933635;29;20246;-63
2023/06/03 07:15:33;;;;;;;10.77;4.93;;;;;;;17.45;60.40;98600.47;4928356;28;20233;-63
2023/06/03 07:18:00;;;;;;;11.40;5.30;;;;;;;17.48;61.15;98608.78;4934866;28;20279;-63
2023/06/03 07:20:34;;;;;;;11.13;5.20;;;;;;;17.71;61.07;98615.59;4926281;28;20239;-63
2023/06/03 07:23:02;;;;;;;11.30;4.93;;;;;;;17.87;61.75;98619.69;4915488;29;20244;-63
2023/06/03 07:25:35;;;;;;;13.23;5.13;;;;;;;17.82;60.00;98616.81;4906742;29;20234;-63
2023/06/03 07:28:04;;;;;;;11.80;5.17;;;;;;;17.92;60.94;98629.69;4917165;28;20597;-63
2023/06/03 07:30:36;;;;;;;8.57;4.20;;;;;;;18.06;60.60;98627.91;4908124;29;20244;-63
2023/06/03 07:33:04;;;;;;;15.77;5.00;;;;;;;17.96;61.22;98622.97;4917730;29;20299;-63
2023/06/03 07:35:34;;;;;;;9.23;4.40;;;;;;;18.18;60.30;98626.31;4911082;29;20242;-63
2023/06/03 07:38:01;;;;;;;20.77;6.10;;;;;;;18.27;60.47;98629.56;4916423;29;20237;-63
2023/06/03 07:40:39;;;;;;;17.60;5.73;;;;;;;18.22;59.80;98618.78;4932455;28;20245;-63
2023/06/03 07:43:07;;;;;;;15.70;5.40;;;;;;;18.44;60.07;98628.16;4913424;29;20234;-63
2023/06/03 07:45:34;;;;;;;22.23;5.30;;;;;;;18.42;60.04;98624.91;4911594;28;20324;-63
2023/06/03 07:48:02;;;;;;;11.07;4.53;;;;;;;18.52;58.75;98631.63;4918248;29;20341;-63
2023/06/03 07:50:29;;;;;;;12.53;4.63;;;;;;;18.65;58.42;98633.44;4914889;28;20733;-63
2023/06/03 07:53:01;;;;;;;12.77;4.90;;;;;;;18.71;58.59;98643.22;4914631;28;20804;-63
2023/06/03 07:55:37;;;;;;;11.93;4.70;;;;;;;18.59;59.18;98632.44;4917266;28;20234;-63
2023/06/03 07:58:04;;;;;;;10.73;4.23;;;;;;;18.84;57.60;98642.41;4912871;28;20234;-64
2023/06/03 08:00:30;;;;;;;10.33;4.20;;;;;;;18.86;57.11;98640.38;4912595;28;20231;-63
2023/06/03 08:02:57;;;;;;;9.73;4.37;;;;;;;18.72;57.25;98642.19;4916615;29;20241;-63
2023/06/03 08:05:32;;;;;;;12.67;5.17;;;;;;;18.66;58.77;98643.84;4917076;28;20246;-63
2023/06/03 08:08:00;;;;;;;10.73;4.33;;;;;;;18.64;58.02;98640.59;4913002;28;20220;-63
2023/06/03 08:10:27;;;;;;;10.77;4.67;;;;;;;18.85;57.42;98650.13;4915492;28;20234;-63
2023/06/03 08:12:54;;;;;;;9.40;4.80;;;;;;;18.91;57.30;98651.16;4915310;28;20241;-63
2023/06/03 08:15:27;;;;;;;13.43;5.00;;;;;;;18.79;58.54;98655.44;4918305;28;20234;-63
2023/06/03 08:17:55;;;;;;;13.50;5.00;;;;;;;18.64;58.44;98650.34;4909729;28;20334;-63
2023/06/03 08:20:26;;;;;;;13.53;5.33;;;;;;;18.63;58.81;98654.00;4913352;29;20240;-63
2023/06/03 08:22:53;;;;;;;13.80;4.50;;;;;;;18.85;59.15;98651.97;4913735;28;20236;-63
2023/06/03 08:25:22;;;;;;;12.43;4.60;;;;;;;18.91;57.87;98656.47;4910224;28;20234;-63
2023/06/03 08:27:48;;;;;;;16.53;4.90;;;;;;;19.11;57.96;98661.75;4908122;29;20247;-63
2023/06/03 08:30:16;;;;;;;10.60;4.90;;;;;;;19.11;57.92;98663.56;4919577;28;20233;-63
2023/06/03 08:32:45;;;;;;;14.87;4.70;;;;;;;19.30;57.00;98652.13;4911411;29;20243;-63
2023/06/03 08:35:15;;;;;;;14.00;5.33;;;;;;;19.18;57.09;98649.31;4918857;28;20780;-63
2023/06/03 08:37:43;;;;;;;10.03;4.80;;;;;;;19.33;56.77;98650.94;4917500;28;20244;-63
2023/06/03 08:40:11;;;;;;;13.27;5.20;;;;;;;19.40;56.76;98653.53;4919187;28;20246;-63
2023/06/03 08:42:43;;;;;;;10.43;4.47;;;;;;;19.53;56.24;98652.72;4909831;28;20735;-63
2023/06/03 08:45:11;;;;;;;13.70;4.90;;;;;;;19.68;55.48;98655.09;4920934;28;20234;-63
2023/06/03 08:47:52;;;;;;;8.63;4.50;;;;;;;19.81;56.89;98657.69;4917598;28;20235;-63
2023/06/03 08:50:21;;;;;;;11.67;4.33;;;;;;;19.84;56.54;98654.63;4917891;28;20231;-63
2023/06/03 08:52:49;;;;;;;10.80;4.53;;;;;;;19.90;54.82;98661.75;4916604;28;20253;-63
2023/06/03 08:55:17;;;;;;;10.43;4.60;;;;;;;19.85;55.74;98655.41;4916933;28;20227;-63
2023/06/03 08:57:50;;;;;;;12.40;4.43;;;;;;;19.83;55.86;98653.00;4921345;28;20237;-63
2023/06/03 09:00:23;;;;;;;11.10;4.80;;;;;;;20.06;54.35;98657.00;4936287;28;20239;-63
2023/06/03 09:02:51;;;;;;;9.47;4.53;;;;;;;19.93;55.12;98644.63;4916544;28;20317;-63
2023/06/03 09:05:18;;;;;;;17.83;4.87;;;;;;;19.87;54.70;98654.19;4920467;28;20231;-63
2023/06/03 09:07:45;;;;;;;13.03;5.00;;;;;;;20.09;55.35;98645.97;4912848;28;20723;-63
2023/06/03 09:10:13;;;;;;;8.93;4.17;;;;;;;20.18;55.31;98643.88;4921176;28;20226;-63
2023/06/03 09:12:41;;;;;;;9.43;4.40;;;;;;;20.23;54.57;98648.53;4918586;28;20247;-63
2023/06/03 09:15:14;;;;;;;7.47;4.30;;;;;;;20.40;54.13;98638.25;4919460;28;20240;-64
2023/06/03 09:17:41;;;;;;;10.57;5.13;;;;;;;20.39;53.63;98648.03;4921657;28;20621;-63
2023/06/03 09:20:08;;;;;;;11.60;4.60;;;;;;;20.67;51.93;98646.81;4917967;28;20234;-63
2023/06/03 09:22:36;;;;;;;9.37;4.30;;;;;;;20.69;53.97;98639.44;4919898;28;20744;-63
2023/06/03 09:25:03;;;;;;;11.37;4.87;;;;;;;20.77;53.84;98641.84;4917297;28;20244;-63
2023/06/03 09:27:29;;;;;;;9.17;4.67;;;;;;;20.88;53.35;98637.66;4914857;28;20217;-63
2023/06/03 09:29:57;;;;;;;11.10;4.70;;;;;;;20.91;52.67;98641.75;4918324;28;20260;-63
2023/06/03 09:32:25;;;;;;;12.30;4.83;;;;;;;21.01;53.47;98634.09;4919648;28;20255;-63
2023/06/03 09:34:53;;;;;;;11.07;4.80;;;;;;;21.10;53.16;98639.91;4913541;28;20243;-63
2023/06/03 09:37:20;;;;;;;10.97;4.80;;;;;;;21.34;53.27;98630.28;4919827;28;20232;-63
2023/06/03 09:39:48;;;;;;;8.33;4.57;;;;;;;21.58;52.30;98626.97;4918462;28;20294;-63
2023/06/03 09:42:15;;;;;;;8.67;4.80;;;;;;;21.63;51.32;98627.16;4916697;28;20643;-63
2023/06/03 09:44:43;;;;;;;12.00;4.63;;;;;;;21.57;51.71;98622.69;4914944;28;20322;-63
2023/06/03 09:47:11;;;;;;;19.47;5.30;;;;;;;21.68;51.18;98630.72;4919119;28;20236;-63
2023/06/03 09:50:01;;;;;;;12.90;4.77;;;;;;;21.86;51.04;98637.06;4915440;28;20237;-63
2023/06/03 09:52:32;;;;;;;8.27;4.40;;;;;;;22.02;49.63;98627.63;4917972;28;20243;-63
2023/06/03 09:55:01;;;;;;;13.13;4.67;;;;;;;22.14;50.62;98625.03;4914292;28;20243;-63
2023/06/03 09:57:27;;;;;;;11.30;4.73;;;;;;;22.16;49.45;98638.91;4913654;29;20635;-63
2023/06/03 10:00:07;;;;;;;14.57;4.67;;;;;;;22.30;48.41;98636.88;4914680;28;20664;-63
2023/06/03 10:02:35;;;;;;;11.97;4.87;;;;;;;22.07;50.68;98627.78;4915743;29;20241;-63
2023/06/03 10:05:03;;;;;;;11.97;4.90;;;;;;;22.08;49.67;98633.91;4918426;28;20231;-63
2023/06/03 10:07:30;;;;;;;9.80;4.87;;;;;;;22.19;49.75;98625.16;4915828;28;20225;-63
2023/06/03 10:10:04;;;;;;;9.77;4.37;;;;;;;22.29;48.57;98623.78;4917846;28;20230;-63
2023/06/03 10:12:32;;;;;;;13.37;5.27;;;;;;;22.12;49.13;98627.91;4916048;28;20289;-63
2023/06/03 10:14:59;;;;;;;9.53;5.27;;;;;;;22.20;49.49;98618.00;4917704;28;20574;-63
2023/06/03 10:17:27;;;;;;;11.27;5.07;;;;;;;22.05;48.89;98615.75;4918228;28;20234;-64
2023/06/03 10:19:54;;;;;;;10.67;5.10;;;;;;;22.27;48.51;98614.19;4918111;28;20236;-64
2023/06/03 10:22:23;;;;;;;8.50;4.43;;;;;;;22.32;48.78;98613.50;4916195;28;20225;-64
2023/06/03 10:24:54;;;;;;;11.03;5.43;;;;;;;22.23;47.77;98612.22;4913376;28;20229;-63
2023/06/03 10:27:21;;;;;;;9.07;4.53;;;;;;;22.44;49.32;98605.56;4918444;28;20373;-63
2023/06/03 10:29:53;;;;;;;11.57;5.30;;;;;;;22.72;48.41;98617.41;4905279;28;20247;-63
2023/06/03 10:32:22;;;;;;;11.80;5.33;;;;;;;22.35;48.39;98607.75;4918247;28;20242;-63
2023/06/03 10:34:50;;;;;;;10.63;4.93;;;;;;;22.15;48.83;98605.41;4915376;28;20301;-63
2023/06/03 10:37:17;;;;;;;8.57;4.53;;;;;;;22.47;50.39;98602.47;4915864;28;20732;-63
2023/06/03 10:39:45;;;;;;;10.80;5.37;;;;;;;22.73;48.73;98610.25;4915167;28;20296;-63
2023/06/03 10:42:13;;;;;;;9.30;5.27;;;;;;;23.05;48.49;98607.22;4914986;28;20292;-63
2023/06/03 10:44:42;;;;;;;9.07;5.10;;;;;;;23.10;48.09;98610.81;4914085;28;20252;-63
2023/06/03 10:47:13;;;;;;;9.53;5.47;;;;;;;23.13;47.73;98610.34;4917781;29;20239;-63
2023/06/03 10:49:46;;;;;;;10.60;5.20;;;;;;;23.44;47.15;98610.19;4915586;28;20242;-63
2023/06/03 10:52:49;;;;;;;10.27;5.40;;;;;;;23.38;46.08;98605.81;4919914;29;20242;-63
2023/06/03 10:55:28;;;;;;;14.47;5.13;;;;;;;23.50;47.91;98603.94;4910692;28;20249;-63
2023/06/03 10:58:01;;;;;;;11.33;5.03;;;;;;;23.48;47.12;98603.34;4912128;28;20762;-63
2023/06/03 11:00:53;;;;;;;12.63;4.77;;;;;;;23.61;46.62;98609.47;4921388;28;20227;-63
2023/06/03 11:03:21;;;;;;;9.77;5.47;;;;;;;23.62;46.02;98608.41;4914152;29;20234;-64
2023/06/03 11:05:48;;;;;;;11.40;4.97;;;;;;;23.69;45.97;98609.88;4910524;28;20691;-63
2023/06/03 11:08:14;;;;;;;10.70;5.13;;;;;;;23.38;45.57;98603.94;4915370;29;20643;-64
2023/06/03 11:10:45;;;;;;;13.80;5.37;;;;;;;23.85;46.17;98607.50;4915046;28;20237;-64
2023/06/03 11:13:42;;;;;;;10.63;5.07;;;;;;;24.29;45.62;98604.28;4933338;28;20231;-64
2023/06/03 11:16:09;;;;;;;14.53;5.03;;;;;;;24.32;45.92;98601.97;4914239;28;20242;-64
2023/06/03 11:18:36;;;;;;;13.17;5.60;;;;;;;24.20;44.99;98597.75;4912379;29;20239;-64
2023/06/03 11:21:03;;;;;;;13.83;4.67;;;;;;;24.42;44.14;98595.16;4917330;28;20300;-64
2023/06/03 11:23:43;;;;;;;11.63;5.57;;;;;;;24.28;43.72;98595.50;4909923;28;20241;-64
2023/06/03 11:26:34;;;;;;;14.10;5.10;;;;;;;24.60;43.42;98592.25;4910398;28;20233;-64
2023/06/03 11:29:01;;;;;;;8.37;4.73;;;;;;;24.60;44.75;98591.44;4917918;28;20330;-64
2023/06/03 11:31:28;;;;;;;10.30;5.72;;;;;;;24.39;42.81;98598.31;4915900;28;20533;-63
2023/06/03 11:34:26;;;;;;;10.33;5.80;;;;;;;24.64;42.41;98591.75;4913764;28;20238;-63
2023/06/03 11:36:55;;;;;;;11.10;5.37;;;;;;;24.49;41.60;98597.69;4912705;28;20322;-62
2023/06/03 11:39:23;;;;;;;11.57;5.50;;;;;;;24.47;42.57;98592.56;4917453;28;20247;-62